Columbus/Bolton Field, Ohio
Current Conditions -  °F | °C
As of 2:55 PM on Sunday 21 Dec 2014 (Local Time) from KTZR Reporting Station
Clear Clear  
Wind Chill: 31°   Ceiling: Unl
Heat Index: 36°   Visibility: 10mi
Dew Point: 25°   Wind: 6mph
Humidity: 65%   Direction: 110°ESE
Pressure: 30.21"   Gusts: NA
Location:  39.9°N, 83.13°W
Report Text: KTZR 211955Z 11005KT 10SM SKC 02/M04 A3021
Loading
Personal Weather Stations






























Interactive Weather Map New forecast layout! Learn more

10-Day Weather Forecast

Advertisements
Track Severe Weather on mobile